Time;durP1;ratioP1;P1;durP2;ratioP2;P2;SDS_P1;SDS_P2;PMS_P1;PMS_P2;Temp;Humidity;BMP_temperature;BMP_pressure;BME280_temperature;BME280_humidity;BME280_pressure;Samples;Min_cycle;Max_cycle;Signal;HPM_P1;HPM_P2
2023/03/25 00:00:17;;;;;;;5.32;1.08;;;10.50;99.90;;;;;;5057201;28;20170;-88
2023/03/25 00:02:54;;;;;;;5.20;0.68;;;10.50;99.90;;;;;;5056654;28;20039;-88
2023/03/25 00:05:20;;;;;;;16.25;1.80;;;10.50;99.90;;;;;;5053740;28;20040;-83
2023/03/25 00:07:50;;;;;;;5.80;1.23;;;10.40;99.90;;;;;;5053907;28;20078;-83
2023/03/25 00:10:16;;;;;;;6.53;1.50;;;10.40;99.90;;;;;;5055256;28;20502;-81
2023/03/25 00:12:42;;;;;;;7.78;1.40;;;10.40;99.90;;;;;;5053790;28;20028;-82
2023/03/25 00:15:10;;;;;;;10.70;1.75;;;10.30;99.90;;;;;;5053406;28;20110;-82
2023/03/25 00:17:37;;;;;;;10.88;1.92;;;10.40;99.90;;;;;;5053525;28;20060;-82
2023/03/25 00:20:10;;;;;;;9.18;1.73;;;10.30;99.90;;;;;;5052897;28;20036;-81
2023/03/25 00:22:39;;;;;;;15.55;1.75;;;10.30;99.90;;;;;;5053137;28;20094;-82
2023/03/25 00:25:10;;;;;;;6.15;1.27;;;10.40;99.90;;;;;;5054993;28;20111;-83
2023/03/25 00:27:35;;;;;;;19.13;1.63;;;10.30;99.90;;;;;;5053503;28;20018;-83
2023/03/25 00:30:01;;;;;;;20.70;1.35;;;10.40;99.90;;;;;;5035428;28;20482;-83
2023/03/25 00:32:28;;;;;;;12.25;2.33;;;10.40;99.90;;;;;;5034348;28;20036;-83
2023/03/25 00:34:54;;;;;;;5.20;1.38;;;10.30;99.90;;;;;;5066181;28;20042;-85
2023/03/25 00:37:20;;;;;;;4.80;0.93;;;10.30;99.90;;;;;;5033365;28;20026;-85
2023/03/25 00:39:46;;;;;;;11.07;1.58;;;10.30;99.90;;;;;;5034989;28;20033;-83
2023/03/25 00:42:16;;;;;;;10.50;1.63;;;10.30;99.90;;;;;;5034717;28;20036;-83
2023/03/25 00:44:42;;;;;;;5.45;1.38;;;10.30;99.90;;;;;;5034591;28;20046;-85
2023/03/25 00:47:10;;;;;;;25.42;2.25;;;10.40;99.90;;;;;;5033413;28;20021;-84
2023/03/25 00:49:36;;;;;;;6.65;1.50;;;10.30;99.90;;;;;;5035170;28;20022;-85
2023/03/25 00:52:02;;;;;;;12.48;1.58;;;10.30;99.90;;;;;;5033572;28;20041;-85
2023/03/25 00:54:28;;;;;;;8.23;1.08;;;10.30;99.90;;;;;;5033713;28;20114;-84
2023/03/25 00:56:53;;;;;;;16.65;1.60;;;10.40;99.90;;;;;;5033137;28;20033;-85
2023/03/25 00:59:19;;;;;;;2.70;0.77;;;10.40;99.90;;;;;;5034444;28;20079;-83
2023/03/25 01:01:45;;;;;;;8.38;1.70;;;10.40;99.90;;;;;;5033425;28;20037;-84
2023/03/25 01:04:11;;;;;;;7.65;2.20;;;10.40;99.90;;;;;;5052604;28;20021;-84
2023/03/25 01:06:50;;;;;;;14.45;1.77;;;10.40;99.90;;;;;;5053654;28;20074;-86
2023/03/25 01:09:18;;;;;;;16.63;1.65;;;10.40;99.90;;;;;;5052706;28;20021;-85
2023/03/25 01:11:45;;;;;;;10.70;1.63;;;10.40;99.90;;;;;;5052413;28;20512;-87
2023/03/25 01:14:18;;;;;;;6.70;1.33;;;10.30;99.90;;;;;;5052838;28;20025;-84
2023/03/25 01:16:45;;;;;;;9.25;1.63;;;10.40;99.90;;;;;;5054208;28;20040;-83
2023/03/25 01:19:11;;;;;;;16.05;2.67;;;10.40;99.90;;;;;;5051571;28;20045;-84
2023/03/25 01:21:37;;;;;;;9.88;2.35;;;10.30;99.90;;;;;;5032826;28;20033;-82
2023/03/25 01:24:05;;;;;;;13.98;1.73;;;10.30;99.90;;;;;;5033041;28;20504;-83
2023/03/25 01:26:31;;;;;;;;;;;10.30;99.90;;;;;;5033505;28;20037;-82
2023/03/25 01:28:56;;;;;;;16.88;2.35;;;10.30;99.90;;;;;;5034012;28;20388;-84
2023/03/25 01:31:22;;;;;;;8.52;1.92;;;10.20;99.90;;;;;;5051729;28;20021;-82
2023/03/25 01:33:48;;;;;;;7.95;1.48;;;10.20;99.90;;;;;;5053621;28;20025;-83
2023/03/25 01:36:14;;;;;;;10.15;1.67;;;10.20;99.90;;;;;;5048661;28;20056;-83
2023/03/25 01:38:41;;;;;;;11.00;1.27;;;10.20;99.90;;;;;;5032876;28;20444;-83
2023/03/25 01:41:08;;;;;;;11.73;2.03;;;10.20;99.90;;;;;;5032619;28;20025;-86
2023/03/25 01:43:34;;;;;;;11.48;1.90;;;10.20;99.90;;;;;;5031797;28;20516;-84
2023/03/25 01:46:00;;;;;;;14.32;2.35;;;10.20;99.90;;;;;;5033205;28;20083;-82
2023/03/25 01:48:37;;;;;;;13.30;2.00;;;10.10;99.90;;;;;;5032694;28;20029;-82
2023/03/25 01:51:10;;;;;;;15.57;2.38;;;10.00;99.90;;;;;;5032491;28;20033;-82
2023/03/25 01:53:36;;;;;;;12.25;1.35;;;10.00;99.90;;;;;;5033069;28;20038;-82
2023/03/25 01:56:05;;;;;;;5.88;1.35;;;9.90;99.90;;;;;;5049156;28;20026;-81
2023/03/25 01:58:34;;;;;;;13.23;1.65;;;9.90;99.90;;;;;;5033431;28;20034;-81
2023/03/25 02:01:01;;;;;;;6.25;1.77;;;9.90;99.90;;;;;;5033317;28;20497;-82
2023/03/25 02:03:27;;;;;;;14.75;2.17;;;9.90;99.90;;;;;;5031502;28;20538;-82
2023/03/25 02:05:59;;;;;;;12.52;1.60;;;9.90;99.90;;;;;;5033728;28;20030;-82
2023/03/25 02:08:25;;;;;;;10.60;1.25;;;9.90;99.90;;;;;;5032602;28;20393;-82
2023/03/25 02:10:51;;;;;;;11.85;2.33;;;9.90;99.90;;;;;;5048987;28;20085;-82
2023/03/25 02:13:18;;;;;;;13.43;1.73;;;9.80;99.90;;;;;;5032729;28;20021;-83
2023/03/25 02:16:15;;;;;;;6.85;2.00;;;9.80;99.90;;;;;;5065097;28;20485;-82
2023/03/25 02:19:15;;;;;;;7.80;1.63;;;9.80;99.90;;;;;;5053088;28;20045;-83
2023/03/25 02:22:24;;;;;;;12.77;1.90;;;9.80;99.90;;;;;;5052940;28;20459;-82
2023/03/25 02:24:53;;;;;;;11.38;1.83;;;9.80;99.90;;;;;;5031424;28;20064;-83
2023/03/25 02:27:44;;;;;;;8.88;1.88;;;9.80;99.90;;;;;;5052268;28;20025;-83
2023/03/25 02:30:44;;;;;;;10.63;1.48;;;9.80;99.90;;;;;;5051804;28;20095;-82
2023/03/25 02:33:27;;;;;;;8.65;1.38;;;9.80;99.90;;;;;;5053389;28;20515;-83
2023/03/25 02:36:04;;;;;;;8.90;1.98;;;9.80;99.90;;;;;;5051801;28;20057;-82
2023/03/25 02:38:45;;;;;;;8.18;1.65;;;9.80;99.90;;;;;;5053215;28;20086;-83
2023/03/25 02:41:28;;;;;;;14.95;1.35;;;9.80;99.90;;;;;;5051618;28;20040;-84
2023/03/25 02:44:30;;;;;;;11.38;2.05;;;9.80;99.90;;;;;;5052945;28;20525;-83
2023/03/25 02:47:01;;;;;;;18.35;1.83;;;9.80;99.90;;;;;;5055142;28;20036;-83
2023/03/25 02:49:35;;;;;;;11.65;3.53;;;9.80;99.90;;;;;;5056296;28;20025;-82
2023/03/25 02:52:27;;;;;;;5.18;1.48;;;9.80;99.90;;;;;;5055019;28;20025;-83
2023/03/25 02:54:56;;;;;;;16.98;1.95;;;9.80;99.90;;;;;;5056031;28;20439;-82
2023/03/25 02:57:27;;;;;;;8.82;1.33;;;9.90;99.90;;;;;;5055982;28;20473;-83
2023/03/25 02:59:54;;;;;;;13.20;1.58;;;9.90;99.90;;;;;;5056753;28;20129;-83
2023/03/25 03:02:24;;;;;;;8.88;2.08;;;9.80;99.90;;;;;;5056619;28;20060;-83
2023/03/25 03:04:55;;;;;;;12.70;1.73;;;9.80;99.90;;;;;;5056416;28;20037;-83
2023/03/25 03:07:31;;;;;;;7.55;1.50;;;9.80;99.90;;;;;;5055351;28;20493;-83
2023/03/25 03:10:09;;;;;;;10.35;1.65;;;9.80;99.90;;;;;;5056691;28;20028;-83
2023/03/25 03:13:17;;;;;;;10.50;1.73;;;9.90;99.90;;;;;;5055965;28;20422;-82
2023/03/25 03:16:25;;;;;;;18.02;1.52;;;9.80;99.90;;;;;;5026375;28;20029;-82
2023/03/25 03:19:01;;;;;;;19.55;3.08;;;9.80;99.90;;;;;;5055601;28;20033;-83
2023/03/25 03:21:42;;;;;;;5.63;1.75;;;9.70;99.90;;;;;;5054359;28;20033;-82
2023/03/25 03:24:47;;;;;;;8.10;1.83;;;9.70;99.90;;;;;;5054243;28;20436;-82
2023/03/25 03:27:32;;;;;;;15.60;2.10;;;9.70;99.90;;;;;;5024398;28;20041;-82
2023/03/25 03:30:28;;;;;;;23.60;2.63;;;9.70;99.90;;;;;;5055039;28;20028;-82
2023/03/25 03:33:14;;;;;;;10.55;2.22;;;9.70;99.90;;;;;;5055373;28;20017;-82
2023/03/25 03:36:04;;;;;;;14.70;1.52;;;9.70;99.90;;;;;;5054293;28;20047;-82
2023/03/25 03:38:34;;;;;;;8.45;1.85;;;9.60;99.90;;;;;;5054107;28;20150;-82
2023/03/25 03:41:06;;;;;;;13.27;1.95;;;9.60;99.90;;;;;;5055421;28;20120;-82
2023/03/25 03:43:45;;;;;;;13.43;2.97;;;9.60;99.90;;;;;;5053628;28;20044;-82
2023/03/25 03:46:26;;;;;;;12.05;1.80;;;9.60;99.90;;;;;;5055866;28;20035;-82
2023/03/25 03:48:56;;;;;;;13.93;1.98;;;9.60;99.90;;;;;;5055559;28;20029;-81
2023/03/25 03:51:30;;;;;;;9.57;1.90;;;9.50;99.90;;;;;;5053693;28;20033;-78
2023/03/25 03:54:11;;;;;;;11.77;1.65;;;9.50;99.90;;;;;;5054641;28;20039;-78
2023/03/25 03:56:45;;;;;;;6.65;1.55;;;9.40;99.90;;;;;;5053709;28;20124;-77
2023/03/25 03:59:19;;;;;;;23.08;2.53;;;9.40;99.90;;;;;;5053309;28;20103;-77
2023/03/25 04:01:52;;;;;;;10.77;2.15;;;9.30;99.90;;;;;;5054500;28;20021;-77
2023/03/25 04:04:27;;;;;;;16.98;2.40;;;9.30;99.90;;;;;;5054423;28;20029;-78
2023/03/25 04:07:14;;;;;;;10.85;2.13;;;9.20;99.90;;;;;;5054258;28;20048;-77
2023/03/25 04:10:07;;;;;;;17.98;2.28;;;9.20;99.90;;;;;;5054470;28;20029;-77
2023/03/25 04:12:39;;;;;;;11.15;1.52;;;9.10;99.90;;;;;;5053049;28;20444;-77
2023/03/25 04:15:06;;;;;;;15.52;1.92;;;9.10;99.90;;;;;;5054671;28;20116;-77
2023/03/25 04:17:32;;;;;;;11.10;2.08;;;9.00;99.90;;;;;;5050267;28;20045;-77
2023/03/25 04:19:59;;;;;;;10.82;2.67;;;8.90;99.90;;;;;;5054331;28;20389;-76
2023/03/25 04:22:25;;;;;;;16.45;1.55;;;8.90;99.90;;;;;;5054180;28;20112;-77
2023/03/25 04:24:55;;;;;;;12.88;1.42;;;8.80;99.90;;;;;;5054074;28;20025;-78
2023/03/25 04:27:21;;;;;;;10.77;1.90;;;8.80;99.90;;;;;;5053922;28;20112;-77
2023/03/25 04:29:50;;;;;;;15.23;2.20;;;8.80;99.90;;;;;;5052671;28;20508;-77
2023/03/25 04:32:16;;;;;;;21.58;2.35;;;8.80;99.90;;;;;;5052543;28;20040;-76
2023/03/25 04:34:42;;;;;;;11.82;2.17;;;8.80;99.90;;;;;;5052562;28;20378;-77
2023/03/25 04:37:07;;;;;;;21.05;2.15;;;8.80;99.90;;;;;;5053824;28;20041;-77
2023/03/25 04:39:33;;;;;;;19.20;2.20;;;8.80;99.90;;;;;;5052459;28;20614;-77
2023/03/25 04:42:02;;;;;;;14.90;1.77;;;8.80;99.90;;;;;;5052525;28;20025;-77
2023/03/25 04:44:37;;;;;;;13.27;2.05;;;8.80;99.90;;;;;;5052323;28;20124;-78
2023/03/25 04:47:04;;;;;;;15.13;2.35;;;8.90;99.90;;;;;;5053635;28;20033;-76
2023/03/25 04:49:30;;;;;;;13.15;3.53;;;8.90;99.90;;;;;;5052245;28;20520;-77
2023/03/25 04:51:56;;;;;;;16.20;2.72;;;8.90;99.90;;;;;;5053539;28;20021;-77
2023/03/25 04:54:22;;;;;;;22.15;2.78;;;8.90;99.90;;;;;;5053489;28;20025;-77
2023/03/25 04:56:49;;;;;;;14.57;1.80;;;8.90;99.90;;;;;;5053397;28;20035;-78
2023/03/25 04:59:17;;;;;;;14.23;2.08;;;8.90;99.90;;;;;;5052169;28;20029;-77
2023/03/25 05:01:44;;;;;;;20.47;2.63;;;8.90;99.90;;;;;;5053434;28;20028;-78
2023/03/25 05:04:12;;;;;;;30.42;2.65;;;9.00;99.90;;;;;;5051915;28;20037;-78
2023/03/25 05:06:41;;;;;;;16.65;2.88;;;9.00;99.90;;;;;;5051568;28;20065;-77
2023/03/25 05:09:14;;;;;;;19.95;3.70;;;9.00;99.90;;;;;;5053349;28;20021;-77
2023/03/25 05:11:41;;;;;;;16.67;2.42;;;9.00;99.90;;;;;;5051903;28;20029;-78
2023/03/25 05:14:12;;;;;;;18.42;3.28;;;9.00;99.90;;;;;;5051990;28;20025;-78
2023/03/25 05:16:38;;;;;;;20.27;1.83;;;9.00;99.90;;;;;;5053398;28;20052;-78
2023/03/25 05:19:06;;;;;;;24.10;2.58;;;9.00;99.90;;;;;;5052026;28;20037;-77
2023/03/25 05:21:36;;;;;;;14.13;2.72;;;9.10;99.90;;;;;;5051962;28;20098;-77
2023/03/25 05:24:07;;;;;;;20.38;2.40;;;9.10;99.90;;;;;;5053057;28;20029;-78
2023/03/25 05:26:33;;;;;;;16.92;2.95;;;9.10;99.90;;;;;;5053157;28;20390;-79
2023/03/25 05:29:15;;;;;;;25.85;2.67;;;9.20;99.90;;;;;;5053098;28;20021;-78
2023/03/25 05:31:45;;;;;;;24.85;2.50;;;9.20;99.90;;;;;;5053125;28;20491;-78
2023/03/25 05:34:13;;;;;;;24.20;2.90;;;9.20;99.90;;;;;;5053274;28;20029;-79
2023/03/25 05:36:39;;;;;;;21.23;2.42;;;9.30;99.90;;;;;;5051892;28;20044;-79
2023/03/25 05:39:05;;;;;;;20.48;3.13;;;9.30;99.90;;;;;;5053160;28;20033;-79
2023/03/25 05:41:37;;;;;;;18.85;2.28;;;9.30;99.90;;;;;;5051968;28;20504;-79
2023/03/25 05:44:04;;;;;;;17.48;3.53;;;9.20;99.90;;;;;;5051508;28;20063;-79
2023/03/25 05:46:30;;;;;;;21.75;4.45;;;9.30;99.90;;;;;;5051660;28;20117;-79
2023/03/25 05:48:56;;;;;;;18.23;3.03;;;9.30;99.90;;;;;;5051937;28;20021;-79
2023/03/25 05:51:24;;;;;;;23.42;2.35;;;9.30;99.90;;;;;;5052873;28;20044;-80
2023/03/25 05:53:49;;;;;;;27.13;3.35;;;9.20;99.90;;;;;;5053073;28;20079;-79
2023/03/25 05:56:19;;;;;;;23.70;2.42;;;9.20;99.90;;;;;;5053082;28;20397;-81
2023/03/25 05:58:45;;;;;;;24.15;2.65;;;9.10;99.90;;;;;;5053419;28;20033;-80
2023/03/25 06:01:13;;;;;;;14.77;2.05;;;9.10;99.90;;;;;;5052999;28;20083;-80
2023/03/25 06:03:39;;;;;;;25.92;3.72;;;9.10;99.90;;;;;;5051450;28;20037;-81
2023/03/25 06:06:12;;;;;;;15.23;3.25;;;9.20;99.90;;;;;;5052818;28;20037;-80
2023/03/25 06:08:40;;;;;;;21.35;2.53;;;9.20;99.90;;;;;;5051616;28;20045;-80
2023/03/25 06:11:08;;;;;;;24.58;2.80;;;9.20;99.90;;;;;;5052956;28;20040;-80
2023/03/25 06:13:38;;;;;;;13.15;1.90;;;9.20;99.90;;;;;;5052773;28;20025;-80
2023/03/25 06:16:05;;;;;;;17.58;2.28;;;9.30;99.90;;;;;;5052917;28;20536;-79
2023/03/25 06:18:31;;;;;;;22.55;2.20;;;9.40;99.90;;;;;;5052725;28;20110;-79
2023/03/25 06:20:57;;;;;;;19.15;2.05;;;9.40;99.90;;;;;;5056452;28;20150;-79
2023/03/25 06:23:23;;;;;;;19.25;2.22;;;9.40;99.90;;;;;;5055267;28;20108;-79
2023/03/25 06:25:50;;;;;;;10.57;1.98;;;9.20;99.90;;;;;;5054943;28;20619;-80
2023/03/25 06:28:17;;;;;;;17.75;1.60;;;9.30;99.90;;;;;;5056489;28;20025;-82
2023/03/25 06:30:47;;;;;;;10.37;3.03;;;9.30;99.90;;;;;;5055492;28;20025;-80
2023/03/25 06:33:14;;;;;;;16.85;3.13;;;9.20;99.90;;;;;;5054879;28;20021;-80
2023/03/25 06:35:41;;;;;;;21.58;2.55;;;9.20;99.90;;;;;;5054876;28;20033;-80
2023/03/25 06:38:10;;;;;;;20.52;2.33;;;9.20;99.90;;;;;;5054683;28;20073;-80
2023/03/25 06:40:37;;;;;;;12.13;1.52;;;9.20;99.90;;;;;;5054891;28;20037;-80
2023/03/25 06:43:06;;;;;;;9.85;2.05;;;9.10;99.90;;;;;;5054641;28;20072;-81
2023/03/25 06:45:32;;;;;;;6.85;1.58;;;9.10;99.90;;;;;;5055621;28;20045;-80
2023/03/25 06:47:59;;;;;;;15.23;2.78;;;9.10;99.90;;;;;;5055224;28;20033;-80
2023/03/25 06:50:25;;;;;;;16.10;2.53;;;9.10;99.90;;;;;;5054547;28;20061;-81
2023/03/25 06:52:50;;;;;;;11.88;1.67;;;9.10;99.90;;;;;;5054653;28;20060;-82
2023/03/25 06:55:16;;;;;;;19.73;2.08;;;9.10;99.90;;;;;;5054352;28;20090;-80
2023/03/25 06:57:42;;;;;;;23.65;2.47;;;9.20;99.90;;;;;;5055749;28;20029;-79
2023/03/25 07:00:10;;;;;;;19.25;3.13;;;9.20;99.90;;;;;;5054672;28;20033;-80
2023/03/25 07:02:36;;;;;;;25.15;3.45;;;9.20;99.90;;;;;;5054480;28;20032;-80
2023/03/25 07:05:03;;;;;;;19.65;2.78;;;9.20;99.90;;;;;;5055759;28;20051;-80
2023/03/25 07:07:28;;;;;;;15.05;1.95;;;9.20;99.90;;;;;;5055685;28;20041;-80
2023/03/25 07:09:54;;;;;;;15.35;1.90;;;9.30;99.90;;;;;;5055705;28;20496;-80
2023/03/25 07:12:23;;;;;;;27.70;3.03;;;9.30;99.90;;;;;;5054357;28;20033;-80
2023/03/25 07:14:54;;;;;;;19.27;2.88;;;9.30;99.90;;;;;;5054520;28;20024;-81
2023/03/25 07:17:21;;;;;;;15.00;2.00;;;9.40;99.90;;;;;;5054878;28;20029;-81
2023/03/25 07:19:47;;;;;;;18.55;2.60;;;9.50;99.90;;;;;;5054105;28;20021;-81
2023/03/25 07:22:13;;;;;;;17.38;2.22;;;9.50;99.90;;;;;;5055564;28;20105;-81
2023/03/25 07:24:38;;;;;;;17.02;2.38;;;9.50;99.90;;;;;;5054536;28;20033;-81
2023/03/25 07:27:04;;;;;;;18.92;2.45;;;9.60;99.90;;;;;;5055404;28;20027;-81
2023/03/25 07:29:30;;;;;;;23.65;2.72;;;9.60;99.90;;;;;;5055366;28;20029;-81
2023/03/25 07:31:55;;;;;;;23.45;2.97;;;9.70;99.90;;;;;;5055185;28;20528;-82
2023/03/25 07:34:21;;;;;;;20.88;3.58;;;9.70;99.90;;;;;;5055070;28;20057;-81
2023/03/25 07:36:47;;;;;;;22.35;2.28;;;9.80;99.90;;;;;;5053917;28;20032;-81
2023/03/25 07:39:12;;;;;;;18.55;2.22;;;9.80;99.90;;;;;;5053828;28;20090;-80
2023/03/25 07:41:38;;;;;;;34.80;5.72;;;9.80;99.90;;;;;;5054849;28;20063;-81
2023/03/25 07:44:04;;;;;;;10.35;2.13;;;9.80;99.90;;;;;;5053535;28;20045;-81
2023/03/25 07:46:30;;;;;;;23.20;2.55;;;9.80;99.90;;;;;;5055023;28;20029;-81
2023/03/25 07:48:56;;;;;;;24.02;3.40;;;9.80;99.90;;;;;;5054871;28;20378;-80
2023/03/25 07:51:21;;;;;;;14.57;3.13;;;9.80;99.90;;;;;;5053410;28;20025;-80
2023/03/25 07:53:47;;;;;;;19.05;2.53;;;9.90;99.90;;;;;;5054557;28;20054;-80
2023/03/25 07:56:14;;;;;;;18.60;2.00;;;9.90;99.90;;;;;;5053508;28;20047;-80
2023/03/25 07:58:40;;;;;;;22.92;2.88;;;9.90;99.90;;;;;;5053512;28;20412;-81
2023/03/25 08:01:07;;;;;;;20.00;2.42;;;9.90;99.90;;;;;;5053690;28;20047;-81
2023/03/25 08:03:33;;;;;;;23.15;2.08;;;9.90;99.90;;;;;;5054542;28;20393;-80
2023/03/25 08:06:01;;;;;;;11.40;2.45;;;10.00;99.90;;;;;;5053187;28;20052;-79
2023/03/25 08:08:28;;;;;;;20.13;2.40;;;10.00;99.90;;;;;;5054403;28;20028;-82
2023/03/25 08:10:55;;;;;;;14.52;2.38;;;10.00;99.90;;;;;;5053433;28;20107;-82
2023/03/25 08:13:22;;;;;;;21.88;4.47;;;10.00;99.90;;;;;;5050457;28;20025;-81
2023/03/25 08:15:47;;;;;;;17.10;2.95;;;10.00;99.90;;;;;;5052897;28;20068;-81
2023/03/25 08:18:13;;;;;;;12.80;2.97;;;10.10;99.90;;;;;;5052971;28;20060;-81
2023/03/25 08:20:39;;;;;;;10.45;2.40;;;10.10;99.90;;;;;;5053170;28;20029;-80
2023/03/25 08:23:09;;;;;;;15.35;2.60;;;10.20;99.90;;;;;;5053120;28;20033;-80
2023/03/25 08:25:39;;;;;;;23.85;3.10;;;10.20;99.90;;;;;;5052886;28;20378;-81
2023/03/25 08:28:05;;;;;;;21.50;2.50;;;10.10;99.90;;;;;;5054175;28;20024;-82
2023/03/25 08:30:37;;;;;;;14.23;2.75;;;10.00;99.90;;;;;;5052875;28;20033;-81
2023/03/25 08:33:07;;;;;;;13.85;2.50;;;10.10;99.90;;;;;;5054317;28;20029;-81
2023/03/25 08:35:35;;;;;;;16.30;2.72;;;10.20;99.90;;;;;;5052897;28;20029;-81
2023/03/25 08:38:04;;;;;;;9.77;2.25;;;10.30;99.90;;;;;;5052912;28;20505;-82
2023/03/25 08:40:33;;;;;;;23.10;2.47;;;10.40;99.90;;;;;;5054057;28;20052;-81
2023/03/25 08:42:59;;;;;;;23.63;2.40;;;10.60;99.90;;;;;;5052089;28;20035;-79
2023/03/25 08:45:25;;;;;;;17.63;2.97;;;10.60;99.90;;;;;;5054312;28;20072;-88
2023/03/25 08:47:50;;;;;;;18.33;2.28;;;10.80;99.90;;;;;;5055613;28;20036;-90
2023/03/25 08:50:16;;;;;;;23.42;4.40;;;10.80;99.90;;;;;;5056478;28;20363;-79
2023/03/25 08:52:42;;;;;;;20.10;2.45;;;10.90;99.90;;;;;;5053645;28;20033;-84
2023/03/25 08:55:10;;;;;;;14.82;2.28;;;10.90;99.90;;;;;;5055543;28;20040;-85
2023/03/25 08:57:36;;;;;;;22.40;4.03;;;10.80;99.90;;;;;;5053955;28;20442;-87
2023/03/25 09:00:11;;;;;;;14.80;2.33;;;10.90;99.90;;;;;;5055908;28;20032;-85
2023/03/25 09:02:38;;;;;;;21.15;3.20;;;11.10;99.90;;;;;;5056242;28;20415;-82
2023/03/25 09:05:31;;;;;;;18.33;2.63;;;11.10;99.90;;;;;;5056899;28;20122;-84
2023/03/25 09:07:57;;;;;;;22.85;1.90;;;11.20;99.90;;;;;;5053792;28;20024;-88
2023/03/25 09:10:23;;;;;;;19.73;2.50;;;11.30;99.90;;;;;;5057323;28;20493;-84
2023/03/25 09:12:48;;;;;;;21.10;2.50;;;11.20;99.90;;;;;;5054615;28;20156;-83
2023/03/25 09:15:14;;;;;;;18.17;2.50;;;11.20;99.90;;;;;;5054674;28;20032;-85
2023/03/25 09:17:41;;;;;;;23.40;2.30;;;11.20;99.90;;;;;;5054450;28;20059;-83
2023/03/25 09:20:07;;;;;;;22.43;3.20;;;11.20;99.90;;;;;;5054485;28;20037;-83
2023/03/25 09:22:34;;;;;;;10.07;1.60;;;11.10;99.90;;;;;;5055189;28;20311;-83
2023/03/25 09:25:00;;;;;;;21.98;2.30;;;11.20;99.90;;;;;;5054080;28;20456;-83
2023/03/25 09:27:25;;;;;;;25.30;2.42;;;11.40;99.90;;;;;;5056780;28;20029;-83
2023/03/25 09:29:51;;;;;;;21.20;2.63;;;11.60;99.90;;;;;;5057373;28;20056;-83
2023/03/25 09:32:17;;;;;;;15.82;1.73;;;11.40;99.90;;;;;;5055589;28;20116;-85
2023/03/25 09:34:43;;;;;;;18.05;1.88;;;11.30;99.90;;;;;;5055817;28;20021;-83
2023/03/25 09:37:09;;;;;;;21.38;2.28;;;11.30;99.90;;;;;;5053940;28;20500;-88
2023/03/25 09:39:35;;;;;;;20.52;2.30;;;11.20;99.90;;;;;;5056560;28;20021;-87
2023/03/25 09:42:41;;;;;;;;;;;;;;;;;;;;;
2023/03/25 09:45:26;;;;;;;27.27;2.37;;;11.40;99.90;;;;;;5058954;28;20124;-85
2023/03/25 09:48:05;;;;;;;14.75;2.08;;;11.40;99.90;;;;;;5047879;28;20116;-84
2023/03/25 09:50:34;;;;;;;14.15;2.00;;;11.30;99.90;;;;;;5048679;28;20044;-85
2023/03/25 09:53:09;;;;;;;19.85;2.95;;;11.40;99.90;;;;;;5050090;28;20018;-87
2023/03/25 09:55:40;;;;;;;14.45;2.10;;;11.50;99.90;;;;;;5059239;28;20060;-88
2023/03/25 09:58:26;;;;;;;18.38;2.25;;;11.60;99.90;;;;;;5057787;28;20060;-86
2023/03/25 10:01:31;;;;;;;16.17;2.30;;;11.70;99.90;;;;;;5059786;28;20094;-86
2023/03/25 10:04:12;;;;;;;17.42;1.90;;;11.60;99.90;;;;;;5043988;28;20040;-84
2023/03/25 10:07:19;;;;;;;26.98;3.60;;;11.50;99.90;;;;;;5059307;28;20028;-86
2023/03/25 10:10:03;;;;;;;20.37;2.47;;;11.60;99.90;;;;;;5057014;28;20064;-86
2023/03/25 10:13:11;;;;;;;14.50;2.42;;;11.80;99.90;;;;;;5018669;28;20418;-83
2023/03/25 10:15:55;;;;;;;20.77;2.65;;;11.80;99.90;;;;;;5015149;28;20434;-84
2023/03/25 10:19:05;;;;;;;18.33;3.20;;;11.80;99.90;;;;;;5015745;28;20038;-83
2023/03/25 10:21:35;;;;;;;17.23;3.55;;;11.90;99.90;;;;;;4996171;28;20227;-83
2023/03/25 10:24:17;;;;;;;16.73;1.85;;;11.80;99.90;;;;;;4995978;28;20029;-85
2023/03/25 10:26:48;;;;;;;12.90;2.55;;;11.70;99.90;;;;;;5002687;28;20095;-83
2023/03/25 10:29:20;;;;;;;15.27;2.28;;;11.90;99.90;;;;;;5018721;28;20513;-81
2023/03/25 10:31:53;;;;;;;11.48;2.72;;;12.10;99.90;;;;;;5032733;28;20551;-76
2023/03/25 10:34:26;;;;;;;11.43;1.77;;;12.10;99.90;;;;;;5036224;28;20120;-82
2023/03/25 10:36:59;;;;;;;16.92;2.40;;;12.20;99.90;;;;;;5034914;28;20037;-82
2023/03/25 10:39:38;;;;;;;11.82;1.80;;;12.10;99.90;;;;;;5031874;28;20050;-83
2023/03/25 10:42:32;;;;;;;19.58;2.40;;;12.20;99.90;;;;;;5017638;28;20079;-81
2023/03/25 10:44:57;;;;;;;13.85;2.40;;;12.20;99.90;;;;;;5051137;28;20140;-82
2023/03/25 10:47:27;;;;;;;19.75;2.38;;;12.00;99.90;;;;;;5042497;28;20072;-82
2023/03/25 10:49:54;;;;;;;11.98;2.35;;;11.80;99.90;;;;;;5035221;28;20026;-81
2023/03/25 10:52:20;;;;;;;9.05;2.65;;;12.10;99.90;;;;;;5036083;28;20057;-80
2023/03/25 10:54:54;;;;;;;10.77;2.28;;;12.20;99.90;;;;;;5034632;28;20048;-81
2023/03/25 10:57:28;;;;;;;10.52;2.10;;;12.30;99.90;;;;;;5034755;28;20095;-83
2023/03/25 11:00:17;;;;;;;11.80;2.03;;;12.30;99.90;;;;;;5034715;28;20516;-82
2023/03/25 11:02:44;;;;;;;10.98;1.95;;;12.30;99.90;;;;;;5035022;28;20354;-82
2023/03/25 11:05:16;;;;;;;11.00;2.22;;;12.10;99.90;;;;;;5034373;28;20040;-83
2023/03/25 11:07:47;;;;;;;15.88;2.85;;;11.90;99.90;;;;;;5034744;28;20037;-85
2023/03/25 11:10:12;;;;;;;11.63;2.05;;;12.10;99.90;;;;;;5035069;28;20021;-84
2023/03/25 11:12:44;;;;;;;8.93;1.73;;;12.10;99.90;;;;;;5034336;28;20038;-82
2023/03/25 11:15:18;;;;;;;14.52;2.53;;;12.40;99.90;;;;;;5046081;28;20072;-80
2023/03/25 11:17:46;;;;;;;12.25;1.67;;;12.40;99.90;;;;;;5054055;28;20041;-79
2023/03/25 11:20:24;;;;;;;15.93;2.30;;;12.40;99.90;;;;;;5054201;28;20029;-80
2023/03/25 11:22:53;;;;;;;7.07;1.73;;;12.20;99.90;;;;;;5054254;28;20036;-82
2023/03/25 11:25:31;;;;;;;9.40;1.77;;;12.30;99.90;;;;;;5054233;28;20068;-79
2023/03/25 11:27:57;;;;;;;;;;;12.40;99.90;;;;;;5052316;28;20036;-81
2023/03/25 11:30:25;;;;;;;14.07;1.85;;;12.40;99.90;;;;;;5055556;28;19908;-81
2023/03/25 11:33:03;;;;;;;14.70;2.03;;;12.50;99.90;;;;;;5054612;28;20140;-79
2023/03/25 11:35:33;;;;;;;8.23;1.52;;;12.60;99.90;;;;;;5055594;28;20033;-82
2023/03/25 11:38:01;;;;;;;30.52;2.33;;;12.60;99.90;;;;;;5054235;28;20059;-81
2023/03/25 11:40:29;;;;;;;11.18;2.25;;;12.60;99.90;;;;;;5055400;28;20147;-81
2023/03/25 11:42:58;;;;;;;27.35;2.75;;;12.50;99.90;;;;;;5055177;28;20035;-81
2023/03/25 11:45:39;;;;;;;17.35;2.08;;;12.30;99.90;;;;;;5053724;28;20037;-80
2023/03/25 11:48:21;;;;;;;12.48;2.08;;;12.30;99.90;;;;;;5055065;28;20490;-80
2023/03/25 11:50:52;;;;;;;15.00;1.75;;;12.40;99.90;;;;;;5054649;28;20029;-81
2023/03/25 11:53:20;;;;;;;7.10;1.88;;;12.40;99.90;;;;;;5055201;28;20037;-81
2023/03/25 11:55:52;;;;;;;;;;;12.60;99.90;;;;;;5054834;28;20167;-82
2023/03/25 11:58:24;;;;;;;19.15;2.05;;;12.60;99.90;;;;;;5055233;28;20003;-79
2023/03/25 12:00:59;;;;;;;11.73;1.80;;;12.80;99.90;;;;;;5054725;28;20072;-83
2023/03/25 12:03:30;;;;;;;5.85;1.45;;;12.70;99.90;;;;;;5053649;28;20036;-80
2023/03/25 12:06:05;;;;;;;9.93;2.05;;;12.80;99.90;;;;;;5053293;28;20128;-80
2023/03/25 12:08:43;;;;;;;15.00;2.60;;;12.80;99.90;;;;;;5054863;28;20025;-80
2023/03/25 12:11:17;;;;;;;10.63;1.85;;;13.00;99.90;;;;;;5053222;28;20116;-80
2023/03/25 12:14:02;;;;;;;11.40;1.73;;;13.10;99.90;;;;;;5054653;28;20029;-80
2023/03/25 12:16:39;;;;;;;9.30;1.70;;;13.40;99.90;;;;;;5052232;28;20071;-81
2023/03/25 12:19:43;;;;;;;14.93;1.60;;;13.60;99.90;;;;;;5054398;28;20056;-81
2023/03/25 12:22:33;;;;;;;16.98;1.95;;;13.60;99.90;;;;;;5054616;28;20267;-82
2023/03/25 12:25:20;;;;;;;15.38;1.70;;;13.60;99.90;;;;;;5052992;28;20493;-80
2023/03/25 12:28:17;;;;;;;8.68;2.40;;;13.40;99.90;;;;;;5054659;28;20478;-80
2023/03/25 12:31:01;;;;;;;8.60;1.60;;;13.30;99.90;;;;;;5053079;28;20040;-81
2023/03/25 12:33:41;;;;;;;14.43;1.88;;;13.10;99.90;;;;;;5052822;28;20024;-80
2023/03/25 12:36:26;;;;;;;7.13;1.13;;;13.20;99.90;;;;;;5052697;28;20041;-79
2023/03/25 12:39:30;;;;;;;19.65;2.08;;;13.30;99.90;;;;;;5052427;28;20036;-80
2023/03/25 12:42:10;;;;;;;11.63;2.10;;;13.00;99.90;;;;;;5047476;28;20061;-79
2023/03/25 12:45:14;;;;;;;14.57;2.03;;;13.30;99.90;;;;;;5053557;28;20028;-81
2023/03/25 12:47:49;;;;;;;9.70;1.52;;;13.50;99.90;;;;;;5053624;28;20033;-81
2023/03/25 12:50:48;;;;;;;15.77;1.92;;;13.60;99.90;;;;;;5051460;28;20020;-80
2023/03/25 12:53:14;;;;;;;11.93;1.80;;;13.40;99.90;;;;;;5052041;28;20025;-81
2023/03/25 12:55:57;;;;;;;5.10;1.33;;;13.30;99.90;;;;;;5048626;28;20516;-81
2023/03/25 12:58:58;;;;;;;7.30;1.45;;;13.40;99.90;;;;;;5036635;28;20438;-80
2023/03/25 13:01:27;;;;;;;14.98;2.00;;;13.50;99.90;;;;;;5053626;28;20485;-81
2023/03/25 13:04:22;;;;;;;12.93;1.98;;;13.80;99.90;;;;;;5053309;28;20450;-81
2023/03/25 13:07:03;;;;;;;10.52;1.63;;;13.90;99.90;;;;;;5047657;28;20044;-80
2023/03/25 13:09:30;;;;;;;13.75;1.92;;;13.70;99.90;;;;;;5053304;28;20555;-81
2023/03/25 13:12:13;;;;;;;8.45;2.10;;;13.50;99.90;;;;;;5045604;28;20087;-80